createdAt,value
2022-08-29T00:00:17.800Z,97330.75
2022-08-29T00:02:48.784Z,97342.56
2022-08-29T00:05:18.839Z,97339.94
2022-08-29T00:07:47.423Z,97339.41
2022-08-29T00:10:16.191Z,97337.97
2022-08-29T00:12:45.537Z,97336.47
2022-08-29T00:15:14.763Z,97340.94
2022-08-29T00:17:43.273Z,97339.34
2022-08-29T00:20:13.814Z,97337.88
2022-08-29T00:22:42.208Z,97334.44
2022-08-29T00:25:11.635Z,97332.00
2022-08-29T00:27:40.108Z,97339.81
2022-08-29T00:30:13.254Z,97326.97
2022-08-29T00:32:41.658Z,97321.50
2022-08-29T00:35:15.399Z,97327.84
2022-08-29T00:37:44.055Z,97328.25
2022-08-29T00:40:15.500Z,97334.84
2022-08-29T00:42:43.939Z,97328.97
2022-08-29T00:45:12.840Z,97328.78
2022-08-29T00:47:46.828Z,97333.56
2022-08-29T00:50:31.857Z,97327.81
2022-08-29T00:53:00.545Z,97332.72
2022-08-29T00:55:30.671Z,97333.56
2022-08-29T00:58:02.657Z,97346.34
2022-08-29T01:00:31.034Z,97351.19
2022-08-29T01:02:59.294Z,97334.66
2022-08-29T01:05:28.222Z,97343.38
2022-08-29T01:07:56.565Z,97341.56
2022-08-29T01:10:43.896Z,97342.38
2022-08-29T01:13:12.687Z,97341.38
2022-08-29T01:15:41.515Z,97343.69
2022-08-29T01:18:10.029Z,97338.72
2022-08-29T01:20:51.256Z,97340.78
2022-08-29T01:23:34.892Z,97343.88
2022-08-29T01:26:03.227Z,97346.84
2022-08-29T01:28:35.136Z,97342.28
2022-08-29T01:31:13.028Z,97340.28
2022-08-29T01:33:45.741Z,97337.16
2022-08-29T01:36:16.497Z,97346.38
2022-08-29T01:38:45.487Z,97344.63
2022-08-29T01:41:14.864Z,97341.75
2022-08-29T01:43:54.567Z,97339.22
2022-08-29T01:46:28.595Z,97348.91
2022-08-29T01:48:57.674Z,97343.69
2022-08-29T01:51:25.993Z,97342.66
2022-08-29T01:53:54.314Z,97340.00
2022-08-29T01:56:25.280Z,97337.94
2022-08-29T01:58:54.034Z,97331.34
2022-08-29T02:01:25.370Z,97330.84
2022-08-29T02:03:53.960Z,97331.69
2022-08-29T02:06:23.456Z,97335.31
2022-08-29T02:08:51.809Z,97340.28
2022-08-29T02:11:20.388Z,97333.25
2022-08-29T02:13:50.684Z,97336.22
2022-08-29T02:16:19.882Z,97333.84
2022-08-29T02:18:48.908Z,97339.06
2022-08-29T02:21:18.421Z,97330.69
2022-08-29T02:23:50.287Z,97339.00
2022-08-29T02:26:19.872Z,97330.91
2022-08-29T02:28:49.085Z,97332.22
2022-08-29T02:31:17.458Z,97337.44
2022-08-29T02:33:46.892Z,97336.22
2022-08-29T02:36:16.240Z,97335.09
2022-08-29T02:38:46.328Z,97344.69
2022-08-29T02:41:14.803Z,97346.59
2022-08-29T02:43:43.318Z,97352.59
2022-08-29T02:46:16.799Z,97351.75
2022-08-29T02:48:49.224Z,97353.41
2022-08-29T02:51:30.862Z,97348.47
2022-08-29T02:53:59.641Z,97356.56
2022-08-29T02:56:28.857Z,97354.47
2022-08-29T02:58:57.715Z,97345.81
2022-08-29T03:01:26.610Z,97345.88
2022-08-29T03:03:55.004Z,97349.25
2022-08-29T03:06:23.390Z,97359.66
2022-08-29T03:08:51.737Z,97359.44
2022-08-29T03:11:23.622Z,97366.50
2022-08-29T03:13:52.517Z,97363.63
2022-08-29T03:16:26.782Z,97363.88
2022-08-29T03:18:55.850Z,97365.47
2022-08-29T03:21:26.720Z,97364.66
2022-08-29T03:23:56.649Z,97366.25
2022-08-29T03:26:25.045Z,97369.34
2022-08-29T03:28:54.452Z,97375.94
2022-08-29T03:31:22.782Z,97382.44
2022-08-29T03:33:51.218Z,97376.19
2022-08-29T03:36:20.215Z,97379.84
2022-08-29T03:38:49.748Z,97385.09
2022-08-29T03:41:26.156Z,97392.66
2022-08-29T03:43:59.862Z,97391.09
2022-08-29T03:46:28.971Z,97391.84
2022-08-29T03:48:57.902Z,97395.78
2022-08-29T03:51:29.361Z,97391.84
2022-08-29T03:53:58.566Z,97396.06
2022-08-29T03:56:28.002Z,97392.38
2022-08-29T03:58:56.997Z,97401.25
2022-08-29T04:01:27.115Z,97400.22
2022-08-29T04:03:56.520Z,97404.91
2022-08-29T04:06:25.560Z,97405.44
2022-08-29T04:08:53.859Z,97409.06
2022-08-29T04:11:24.505Z,97404.63
2022-08-29T04:13:53.805Z,97416.38
2022-08-29T04:16:30.957Z,97409.63
2022-08-29T04:19:00.081Z,97414.81
2022-08-29T04:21:28.545Z,97411.44
2022-08-29T04:23:56.988Z,97409.59
2022-08-29T04:26:41.008Z,97410.13
2022-08-29T04:29:10.487Z,97405.41
2022-08-29T04:31:40.032Z,97406.47
2022-08-29T04:34:10.249Z,97403.34
2022-08-29T04:36:39.371Z,97406.50
2022-08-29T04:39:08.675Z,97405.94
2022-08-29T04:41:37.074Z,97409.09
2022-08-29T04:44:05.979Z,97419.00
2022-08-29T04:46:34.457Z,97413.50
2022-08-29T04:49:04.438Z,97425.25
2022-08-29T04:51:34.681Z,97425.75
2022-08-29T04:54:04.273Z,97425.50
2022-08-29T04:56:32.665Z,97429.94
2022-08-29T04:59:03.473Z,97430.72
2022-08-29T05:01:32.020Z,97437.25
2022-08-29T05:04:01.019Z,97442.97
2022-08-29T05:06:29.325Z,97436.19
2022-08-29T05:08:59.018Z,97445.56
2022-08-29T05:11:32.437Z,97436.72
2022-08-29T05:14:00.845Z,97447.16
2022-08-29T05:16:30.672Z,97450.56
2022-08-29T05:18:59.996Z,97449.75
2022-08-29T05:21:36.104Z,97456.81
2022-08-29T05:24:06.450Z,97453.69
2022-08-29T05:26:37.236Z,97458.59
2022-08-29T05:29:09.025Z,97452.38
2022-08-29T05:31:38.859Z,97455.75
2022-08-29T05:34:11.300Z,97453.88
2022-08-29T05:36:56.087Z,97453.88
2022-08-29T05:39:24.472Z,97462.69
2022-08-29T05:41:55.694Z,97461.66
2022-08-29T05:44:24.182Z,97471.09
2022-08-29T05:46:52.489Z,97474.72
2022-08-29T05:49:21.113Z,97474.66
2022-08-29T05:51:53.509Z,97468.91
2022-08-29T05:54:22.067Z,97475.94
2022-08-29T05:56:51.273Z,97471.47
2022-08-29T05:59:19.757Z,97460.53
2022-08-29T06:01:48.114Z,97468.06
2022-08-29T06:04:16.545Z,97473.78
2022-08-29T06:06:45.080Z,97468.53
2022-08-29T06:09:13.519Z,97467.47
2022-08-29T06:11:41.923Z,97475.25
2022-08-29T06:14:12.377Z,97471.56
2022-08-29T06:16:40.835Z,97472.06
2022-08-29T06:19:09.293Z,97469.22
2022-08-29T06:21:38.038Z,97473.28
2022-08-29T06:24:06.631Z,97477.97
2022-08-29T06:26:35.241Z,97482.22
2022-08-29T06:29:08.251Z,97470.41
2022-08-29T06:31:36.744Z,97478.22
2022-08-29T06:34:05.931Z,97478.44
2022-08-29T06:36:36.842Z,97477.88
2022-08-29T06:39:07.979Z,97476.00
2022-08-29T06:41:37.848Z,97483.78
2022-08-29T06:44:08.368Z,97497.00
2022-08-29T06:46:41.794Z,97489.84
2022-08-29T06:49:12.137Z,97494.81
2022-08-29T06:51:42.383Z,97495.50
2022-08-29T06:54:11.775Z,97487.28
2022-08-29T06:56:42.466Z,97495.13
2022-08-29T06:59:11.768Z,97494.50
2022-08-29T07:01:43.185Z,97492.34
2022-08-29T07:04:14.711Z,97504.06
2022-08-29T07:06:45.137Z,97495.47
2022-08-29T07:09:13.936Z,97496.63
2022-08-29T07:11:43.097Z,97500.59
2022-08-29T07:14:11.945Z,97503.50
2022-08-29T07:16:40.585Z,97506.84
2022-08-29T07:19:10.963Z,97506.72
2022-08-29T07:21:39.597Z,97514.59
2022-08-29T07:24:08.150Z,97513.25
2022-08-29T07:26:39.207Z,97515.81
2022-08-29T07:29:10.393Z,97516.03
2022-08-29T07:31:40.013Z,97509.09
2022-08-29T07:34:08.526Z,97517.81
2022-08-29T07:36:37.076Z,97515.50
2022-08-29T07:39:08.075Z,97512.94
2022-08-29T07:41:38.819Z,97513.19
2022-08-29T07:44:07.273Z,97513.28
2022-08-29T07:46:35.792Z,97511.28
2022-08-29T07:49:04.224Z,97506.91
2022-08-29T07:51:33.314Z,97515.66
2022-08-29T07:54:02.110Z,97515.03
2022-08-29T07:56:37.951Z,97517.44
2022-08-29T07:59:06.817Z,97512.16
2022-08-29T08:01:35.902Z,97506.13
2022-08-29T08:04:04.643Z,97518.19
2022-08-29T08:06:37.374Z,97507.53
2022-08-29T08:09:05.846Z,97508.00
2022-08-29T08:11:36.366Z,97509.13
2022-08-29T08:14:04.870Z,97508.81
2022-08-29T08:16:33.368Z,97507.38
2022-08-29T08:19:01.944Z,97514.31
2022-08-29T08:21:30.959Z,97513.63
2022-08-29T08:23:59.929Z,97518.97
2022-08-29T08:26:28.261Z,97505.22
2022-08-29T08:28:56.715Z,97505.16
2022-08-29T08:31:25.140Z,97507.25
2022-08-29T08:33:53.703Z,97511.78
2022-08-29T08:36:28.773Z,97512.72
2022-08-29T08:39:00.187Z,97503.91
2022-08-29T08:41:42.376Z,97499.91
2022-08-29T08:44:35.296Z,97499.31
2022-08-29T08:47:06.635Z,97499.16
2022-08-29T08:49:42.725Z,97503.69
2022-08-29T08:52:33.480Z,97503.25
2022-08-29T08:55:05.889Z,97498.09
2022-08-29T08:57:40.613Z,97487.72
2022-08-29T09:00:13.715Z,97488.97
2022-08-29T09:03:08.382Z,97486.63
2022-08-29T09:06:04.179Z,97485.84
2022-08-29T09:09:20.048Z,97489.25
2022-08-29T09:12:11.067Z,97486.41
2022-08-29T09:14:58.402Z,97481.44
2022-08-29T09:17:42.144Z,97484.22
2022-08-29T09:20:20.001Z,97480.31
2022-08-29T09:23:23.623Z,97479.84
2022-08-29T09:25:52.101Z,97475.75
2022-08-29T09:28:21.203Z,97476.84
2022-08-29T09:31:34.404Z,97481.22
2022-08-29T09:34:05.352Z,97476.06
2022-08-29T09:36:36.969Z,97477.13
2022-08-29T09:39:31.641Z,97476.63
2022-08-29T09:42:17.755Z,97475.44
2022-08-29T09:45:26.783Z,97476.22
2022-08-29T09:48:17.675Z,97468.56
2022-08-29T09:50:46.647Z,97458.16
2022-08-29T09:53:24.334Z,97474.81
2022-08-29T09:55:53.840Z,97470.91
2022-08-29T09:58:22.213Z,97461.38
2022-08-29T10:01:10.060Z,97459.06
2022-08-29T10:03:51.812Z,97457.38
2022-08-29T10:06:26.578Z,97450.50
2022-08-29T10:09:08.605Z,97454.88
2022-08-29T10:11:47.803Z,97456.00
2022-08-29T10:14:48.177Z,97442.69
2022-08-29T10:17:37.233Z,97447.00
2022-08-29T10:20:07.353Z,97434.94
2022-08-29T10:22:48.350Z,97433.94
2022-08-29T10:25:18.721Z,97434.28
2022-08-29T10:27:51.945Z,97431.31
2022-08-29T10:30:24.490Z,97431.94
2022-08-29T10:33:15.918Z,97423.94
2022-08-29T10:36:02.003Z,97422.75
2022-08-29T10:38:44.455Z,97429.38
2022-08-29T10:41:37.148Z,97427.09
2022-08-29T10:44:26.563Z,97417.03
2022-08-29T10:47:16.682Z,97410.84
2022-08-29T10:50:27.438Z,97406.69
2022-08-29T10:53:08.285Z,97394.25
2022-08-29T10:55:40.281Z,97398.22
2022-08-29T10:58:28.554Z,97395.13
2022-08-29T11:01:06.749Z,97393.16
2022-08-29T11:03:40.479Z,97395.81
2022-08-29T11:06:31.064Z,97394.69
2022-08-29T11:09:30.512Z,97392.06
2022-08-29T11:12:14.471Z,97378.03
2022-08-29T11:15:15.908Z,97375.94
2022-08-29T11:17:50.729Z,97371.75
2022-08-29T11:20:28.622Z,97352.69
2022-08-29T11:23:14.083Z,97350.13
2022-08-29T11:25:43.932Z,97347.94
2022-08-29T11:28:16.497Z,97340.63
2022-08-29T11:30:59.962Z,97334.00
2022-08-29T11:33:40.007Z,97332.59
2022-08-29T11:36:27.114Z,97332.38
2022-08-29T11:39:15.729Z,97329.81
2022-08-29T11:41:46.543Z,97336.81
2022-08-29T11:44:42.752Z,97339.25
2022-08-29T11:47:45.240Z,97350.25
2022-08-29T11:50:17.496Z,97348.94
2022-08-29T11:53:12.204Z,97339.44
2022-08-29T11:55:45.397Z,97342.84
2022-08-29T11:58:16.796Z,97338.66
2022-08-29T12:00:53.062Z,97343.97
2022-08-29T12:03:37.224Z,97344.72
2022-08-29T12:06:27.938Z,97343.63
2022-08-29T12:09:14.110Z,97344.22
2022-08-29T12:12:04.853Z,97357.03
2022-08-29T12:14:48.903Z,97361.03
2022-08-29T12:17:17.265Z,97356.09
2022-08-29T12:19:59.972Z,97367.50
2022-08-29T12:23:06.489Z,97363.63
2022-08-29T12:25:43.192Z,97371.50
2022-08-29T12:28:31.517Z,97363.56
2022-08-29T12:31:08.210Z,97358.69
2022-08-29T12:33:58.711Z,97356.06
2022-08-29T12:36:52.191Z,97359.28
2022-08-29T12:39:47.308Z,97352.91
2022-08-29T12:42:31.717Z,97342.41
2022-08-29T12:45:06.117Z,97331.81
2022-08-29T12:47:45.829Z,97333.63
2022-08-29T12:50:23.887Z,97333.41
2022-08-29T12:53:23.765Z,97333.28
2022-08-29T12:56:15.000Z,97329.47
2022-08-29T12:58:52.913Z,97319.94
2022-08-29T13:01:31.012Z,97332.22
2022-08-29T13:04:20.692Z,97337.22
2022-08-29T13:06:59.106Z,97333.59
2022-08-29T13:09:32.975Z,97347.00
2022-08-29T13:12:09.509Z,97348.88
2022-08-29T13:14:52.236Z,97359.34
2022-08-29T13:17:24.407Z,97358.47
2022-08-29T13:20:30.312Z,97361.38
2022-08-29T13:23:26.406Z,97356.44
2022-08-29T13:26:07.272Z,97362.16
2022-08-29T13:28:51.447Z,97367.31
2022-08-29T13:31:21.555Z,97360.97
2022-08-29T13:33:49.984Z,97350.25
2022-08-29T13:36:27.634Z,97354.75
2022-08-29T13:39:17.672Z,97352.75
2022-08-29T13:41:49.183Z,97350.28
2022-08-29T13:44:20.516Z,97346.28
2022-08-29T13:46:50.067Z,97348.91
2022-08-29T13:49:27.811Z,97335.56
2022-08-29T13:51:57.094Z,97321.50
2022-08-29T13:54:26.611Z,97323.38
2022-08-29T13:56:56.457Z,97321.25
2022-08-29T13:59:28.641Z,97321.72
2022-08-29T14:02:12.922Z,97322.91
2022-08-29T14:04:42.527Z,97324.97
2022-08-29T14:07:18.878Z,97324.38
2022-08-29T14:09:47.514Z,97326.06
2022-08-29T14:12:16.736Z,97332.28
2022-08-29T14:14:45.373Z,97335.56
2022-08-29T14:17:18.585Z,97331.22
2022-08-29T14:19:48.037Z,97341.34
2022-08-29T14:22:16.472Z,97352.53
2022-08-29T14:24:54.359Z,97352.22
2022-08-29T14:27:23.673Z,97344.63
2022-08-29T14:29:52.047Z,97346.16
2022-08-29T14:32:20.571Z,97344.28
2022-08-29T14:34:51.206Z,97344.00
2022-08-29T14:37:21.297Z,97344.47
2022-08-29T14:39:50.575Z,97343.22
2022-08-29T14:42:20.228Z,97345.06
2022-08-29T14:44:48.547Z,97340.28
2022-08-29T14:47:18.097Z,97346.16
2022-08-29T14:49:46.457Z,97341.66
2022-08-29T14:52:15.386Z,97330.78
2022-08-29T14:54:43.934Z,97332.66
2022-08-29T14:57:13.915Z,97330.47
2022-08-29T14:59:43.395Z,97328.16
2022-08-29T15:02:11.823Z,97327.06
2022-08-29T15:04:41.264Z,97319.91
2022-08-29T15:07:12.919Z,97310.75
2022-08-29T15:09:44.471Z,97314.03
2022-08-29T15:12:14.169Z,97308.31
2022-08-29T15:14:42.553Z,97308.44
2022-08-29T15:17:11.279Z,97310.59
2022-08-29T15:22:28.903Z,97318.53
2022-08-29T15:24:57.857Z,97322.72
2022-08-29T15:27:27.606Z,97324.13
2022-08-29T15:29:59.084Z,97322.09
2022-08-29T15:32:27.440Z,97318.53
2022-08-29T15:34:57.904Z,97319.47
2022-08-29T15:37:27.487Z,97322.56
2022-08-29T15:39:59.169Z,97321.00
2022-08-29T15:42:31.413Z,97318.84
2022-08-29T15:45:08.006Z,97315.88
2022-08-29T15:47:37.153Z,97321.34
2022-08-29T15:50:08.209Z,97316.97
2022-08-29T15:52:37.295Z,97319.16
2022-08-29T15:55:07.053Z,97320.53
2022-08-29T15:57:42.366Z,97322.56
2022-08-29T16:00:30.679Z,97320.41
2022-08-29T16:03:03.584Z,97328.31
2022-08-29T16:05:32.669Z,97327.06
2022-08-29T16:08:04.124Z,97322.09
2022-08-29T16:10:32.857Z,97327.03
2022-08-29T16:13:01.871Z,97329.22
2022-08-29T16:15:31.575Z,97334.34
2022-08-29T16:18:00.247Z,97334.75
2022-08-29T16:20:30.059Z,97335.69
2022-08-29T16:22:58.937Z,97340.47
2022-08-29T16:25:27.754Z,97344.53
2022-08-29T16:27:57.668Z,97337.69
2022-08-29T16:30:28.556Z,97336.00
2022-08-29T16:32:56.972Z,97335.06
2022-08-29T16:35:26.450Z,97334.94
2022-08-29T16:38:02.497Z,97335.53
2022-08-29T16:40:32.641Z,97329.03
2022-08-29T16:43:02.724Z,97332.41
2022-08-29T16:45:31.685Z,97341.38
2022-08-29T16:48:00.118Z,97331.13
2022-08-29T16:50:29.572Z,97327.59
2022-08-29T16:52:57.969Z,97315.47
2022-08-29T16:55:26.405Z,97322.63
2022-08-29T16:58:13.408Z,97316.28
2022-08-29T17:00:44.681Z,97314.53
2022-08-29T17:03:16.809Z,97322.25
2022-08-29T17:05:49.680Z,97324.97
2022-08-29T17:08:18.127Z,97320.56
2022-08-29T17:10:46.813Z,97317.94
2022-08-29T17:13:15.539Z,97315.91
2022-08-29T17:15:45.224Z,97323.94
2022-08-29T17:18:13.590Z,97322.31
2022-08-29T17:20:44.021Z,97321.69
2022-08-29T17:23:16.651Z,97321.53
2022-08-29T17:25:46.071Z,97320.13
2022-08-29T17:28:18.548Z,97326.44
2022-08-29T17:30:49.120Z,97335.69
2022-08-29T17:33:18.403Z,97328.16
2022-08-29T17:35:47.137Z,97328.97
2022-08-29T17:38:18.505Z,97329.56
2022-08-29T17:40:47.847Z,97338.06
2022-08-29T17:43:21.251Z,97345.97
2022-08-29T17:45:49.868Z,97337.34
2022-08-29T17:48:20.346Z,97346.06
2022-08-29T17:50:49.353Z,97346.81
2022-08-29T17:53:18.743Z,97348.38
2022-08-29T17:55:55.234Z,97352.84
2022-08-29T17:58:23.614Z,97354.22
2022-08-29T18:00:54.847Z,97356.50
2022-08-29T18:03:25.367Z,97358.97
2022-08-29T18:05:55.799Z,97357.38
2022-08-29T18:08:25.736Z,97366.19
2022-08-29T18:10:54.319Z,97358.97
2022-08-29T18:13:22.703Z,97366.00
2022-08-29T18:15:52.745Z,97355.31
2022-08-29T18:18:23.281Z,97358.47
2022-08-29T18:20:54.375Z,97359.13
2022-08-29T18:23:25.499Z,97358.19
2022-08-29T18:25:56.805Z,97359.00
2022-08-29T18:28:27.089Z,97370.69
2022-08-29T18:30:56.559Z,97371.28
2022-08-29T18:33:38.885Z,97371.97
2022-08-29T18:36:13.710Z,97369.53
2022-08-29T18:38:44.463Z,97380.28
2022-08-29T18:41:18.393Z,97376.94
2022-08-29T18:43:50.296Z,97384.59
2022-08-29T18:46:19.199Z,97373.34
2022-08-29T18:48:48.847Z,97375.59
2022-08-29T18:51:27.856Z,97369.75
2022-08-29T18:53:58.412Z,97375.59
2022-08-29T18:56:28.343Z,97382.84
2022-08-29T18:59:01.210Z,97388.69
2022-08-29T19:01:37.024Z,97397.16
2022-08-29T19:04:07.758Z,97391.63
2022-08-29T19:06:37.911Z,97399.19
2022-08-29T19:09:06.296Z,97399.19
2022-08-29T19:11:45.130Z,97395.31
2022-08-29T19:14:14.889Z,97396.06
2022-08-29T19:16:43.484Z,97405.31
2022-08-29T19:19:15.942Z,97401.53
2022-08-29T19:21:46.523Z,97400.94
2022-08-29T19:24:16.461Z,97413.16
2022-08-29T19:26:55.745Z,97413.88
2022-08-29T19:29:27.156Z,97415.09
2022-08-29T19:31:55.827Z,97411.78
2022-08-29T19:34:25.343Z,97413.94
2022-08-29T19:36:55.672Z,97418.69
2022-08-29T19:39:27.410Z,97418.38
2022-08-29T19:42:04.329Z,97420.00
2022-08-29T19:44:35.959Z,97412.84
2022-08-29T19:47:07.391Z,97418.22
2022-08-29T19:49:41.000Z,97415.56
2022-08-29T19:52:15.370Z,97420.69
2022-08-29T19:54:44.561Z,97418.38
2022-08-29T19:57:14.982Z,97420.81
2022-08-29T19:59:45.382Z,97420.38
2022-08-29T20:02:16.035Z,97421.03
2022-08-29T20:04:44.696Z,97425.88
2022-08-29T20:07:15.973Z,97414.28
2022-08-29T20:09:44.342Z,97432.34
2022-08-29T20:12:13.824Z,97431.22
2022-08-29T20:14:42.273Z,97428.91
2022-08-29T20:17:11.935Z,97431.97
2022-08-29T20:19:40.991Z,97441.50
2022-08-29T20:22:09.450Z,97433.94
2022-08-29T20:24:39.518Z,97445.50
2022-08-29T20:27:10.678Z,97438.75
2022-08-29T20:29:39.278Z,97436.31
2022-08-29T20:32:07.689Z,97436.91
2022-08-29T20:34:36.057Z,97436.56
2022-08-29T20:37:12.509Z,97433.38
2022-08-29T20:39:48.968Z,97441.13
2022-08-29T20:42:20.941Z,97450.91
2022-08-29T20:44:49.395Z,97446.31
2022-08-29T20:47:19.104Z,97442.66
2022-08-29T20:49:47.961Z,97451.69
2022-08-29T20:52:19.094Z,97448.66
2022-08-29T20:54:47.770Z,97446.50
2022-08-29T20:57:16.953Z,97453.13
2022-08-29T20:59:47.878Z,97450.41
2022-08-29T21:02:17.801Z,97459.94
2022-08-29T21:05:05.491Z,97465.00
2022-08-29T21:07:33.806Z,97453.16
2022-08-29T21:10:02.228Z,97457.50
2022-08-29T21:12:30.620Z,97458.50
2022-08-29T21:14:58.896Z,97451.41
2022-08-29T21:17:27.573Z,97451.56
2022-08-29T21:19:56.114Z,97454.03
2022-08-29T21:22:25.233Z,97460.03
2022-08-29T21:24:55.642Z,97461.34
2022-08-29T21:27:24.125Z,97459.34
2022-08-29T21:29:56.800Z,97463.13
2022-08-29T21:32:25.247Z,97452.19
2022-08-29T21:34:53.524Z,97458.09
2022-08-29T21:37:22.104Z,97457.22
2022-08-29T21:39:50.388Z,97462.34
2022-08-29T21:42:19.037Z,97460.28
2022-08-29T21:44:47.472Z,97457.31
2022-08-29T21:47:17.978Z,97460.84
2022-08-29T21:49:48.772Z,97460.28
2022-08-29T21:52:17.746Z,97458.38
2022-08-29T21:54:46.184Z,97463.16
2022-08-29T21:57:17.657Z,97466.38
2022-08-29T21:59:46.160Z,97464.75
2022-08-29T22:02:14.856Z,97466.09
2022-08-29T22:04:43.211Z,97468.78
2022-08-29T22:07:13.413Z,97467.44
2022-08-29T22:09:41.947Z,97468.22
2022-08-29T22:12:10.260Z,97470.50
2022-08-29T22:14:56.852Z,97478.31
2022-08-29T22:17:25.209Z,97479.22
2022-08-29T22:19:53.535Z,97484.97
2022-08-29T22:22:21.789Z,97489.94
2022-08-29T22:24:50.179Z,97487.09
2022-08-29T22:27:18.614Z,97498.78
2022-08-29T22:29:47.572Z,97491.69
2022-08-29T22:32:15.879Z,97490.81
2022-08-29T22:34:44.250Z,97487.22
2022-08-29T22:37:12.526Z,97487.00
2022-08-29T22:39:41.007Z,97482.13
2022-08-29T22:42:09.332Z,97488.34
2022-08-29T22:45:02.075Z,97504.38
2022-08-29T22:47:26.045Z,97502.59
2022-08-29T22:49:55.062Z,97501.78
2022-08-29T22:52:23.934Z,97494.69
2022-08-29T22:54:52.226Z,97508.50
2022-08-29T22:57:20.564Z,97503.28
2022-08-29T22:59:51.824Z,97508.47
2022-08-29T23:02:20.704Z,97509.59
2022-08-29T23:04:49.656Z,97507.59
2022-08-29T23:07:19.540Z,97504.72
2022-08-29T23:09:47.715Z,97506.69
2022-08-29T23:12:16.704Z,97502.84
2022-08-29T23:14:48.102Z,97503.38
2022-08-29T23:17:17.398Z,97521.41
2022-08-29T23:19:45.854Z,97515.31
2022-08-29T23:22:14.274Z,97522.34
2022-08-29T23:24:58.471Z,97529.38
2022-08-29T23:27:30.854Z,97526.69
2022-08-29T23:29:59.753Z,97520.47
2022-08-29T23:32:28.202Z,97527.69
2022-08-29T23:34:56.837Z,97529.84
2022-08-29T23:37:25.905Z,97531.50
2022-08-29T23:39:54.144Z,97522.34
2022-08-29T23:42:22.442Z,97531.50
2022-08-29T23:44:50.745Z,97534.91
2022-08-29T23:47:19.037Z,97540.91
2022-08-29T23:49:47.383Z,97542.19
2022-08-29T23:52:15.679Z,97549.63
2022-08-29T23:54:43.996Z,97529.66
2022-08-29T23:57:12.288Z,97529.53
2022-08-29T23:59:59.390Z,97520.88
